createdAt,value
2018-06-19T00:03:32.804Z,18.27
2018-06-19T00:08:35.942Z,18.29
2018-06-19T00:13:39.056Z,18.34
2018-06-19T00:18:44.657Z,18.35
2018-06-19T00:23:47.859Z,18.35
2018-06-19T00:28:51.117Z,18.45
2018-06-19T00:33:54.350Z,18.48
2018-06-19T00:38:57.459Z,18.63
2018-06-19T00:44:01.161Z,18.73
2018-06-19T00:49:05.062Z,18.69
2018-06-19T00:54:08.131Z,18.83
2018-06-19T00:59:11.253Z,18.84
2018-06-19T01:04:14.371Z,18.81
2018-06-19T01:09:17.515Z,18.74
2018-06-19T01:14:20.669Z,18.72
2018-06-19T01:19:23.816Z,18.64
2018-06-19T01:24:26.929Z,18.56
2018-06-19T01:29:30.022Z,18.44
2018-06-19T01:34:33.145Z,18.29
2018-06-19T01:39:36.272Z,18.14
2018-06-19T01:44:39.436Z,17.88
2018-06-19T01:49:42.527Z,17.63
2018-06-19T01:54:45.675Z,17.48
2018-06-19T01:59:48.868Z,17.31
2018-06-19T02:04:51.993Z,17.17
2018-06-19T02:09:55.155Z,16.96
2018-06-19T02:14:58.251Z,16.80
2018-06-19T02:20:01.362Z,16.82
2018-06-19T02:25:04.995Z,17.01
2018-06-19T02:30:08.136Z,17.22
2018-06-19T02:35:11.284Z,17.34
2018-06-19T02:40:14.390Z,17.40
2018-06-19T02:45:18.219Z,17.39
2018-06-19T02:50:21.494Z,17.33
2018-06-19T02:55:24.605Z,17.36
2018-06-19T03:00:27.834Z,17.41
2018-06-19T03:05:32.060Z,17.55
2018-06-19T03:10:35.152Z,17.60
2018-06-19T03:15:38.310Z,17.73
2018-06-19T03:20:41.440Z,17.70
2018-06-19T03:25:45.528Z,17.77
2018-06-19T03:30:48.922Z,17.97
2018-06-19T03:35:52.363Z,17.98
2018-06-19T03:40:55.585Z,18.23
2018-06-19T03:45:58.843Z,18.45
2018-06-19T03:51:02.046Z,18.60
2018-06-19T03:56:05.161Z,18.62
2018-06-19T04:01:08.459Z,18.65
2018-06-19T04:06:11.791Z,18.55
2018-06-19T04:11:15.077Z,18.58
2018-06-19T04:16:18.169Z,18.55
2018-06-19T04:21:21.308Z,18.55
2018-06-19T04:26:26.599Z,18.67
2018-06-19T04:31:29.849Z,18.81
2018-06-19T04:36:33.055Z,18.98
2018-06-19T04:41:36.255Z,19.00
2018-06-19T04:46:39.430Z,19.12
2018-06-19T04:51:42.561Z,19.29
2018-06-19T04:56:45.747Z,19.45
2018-06-19T05:01:48.899Z,19.62
2018-06-19T05:06:52.092Z,19.78
2018-06-19T05:11:55.337Z,20.02
2018-06-19T05:16:58.485Z,20.36
2018-06-19T05:22:01.658Z,20.53
2018-06-19T05:27:04.985Z,20.87
2018-06-19T05:32:10.407Z,21.32
2018-06-19T05:37:13.622Z,21.61
2018-06-19T05:42:17.690Z,22.46
2018-06-19T05:47:20.823Z,23.19
2018-06-19T05:52:23.942Z,25.09
2018-06-19T05:57:27.102Z,28.70
2018-06-19T06:02:30.321Z,26.45
2018-06-19T06:07:33.491Z,24.86
2018-06-19T06:12:36.661Z,27.53
2018-06-19T06:17:40.016Z,29.89
2018-06-19T06:22:43.170Z,31.78
2018-06-19T06:27:46.305Z,32.45
2018-06-19T06:32:49.492Z,29.05
2018-06-19T06:37:52.608Z,26.96
2018-06-19T06:42:55.936Z,27.74
2018-06-19T06:47:59.282Z,29.29
2018-06-19T06:53:02.432Z,31.38
2018-06-19T06:58:05.637Z,32.20
2018-06-19T07:03:08.799Z,31.82
2018-06-19T07:08:11.913Z,31.51
2018-06-19T07:13:15.403Z,33.00
2018-06-19T07:18:18.519Z,34.12
2018-06-19T07:23:21.708Z,34.61
2018-06-19T07:28:25.161Z,34.28
2018-06-19T07:33:28.451Z,32.58
2018-06-19T07:38:31.647Z,33.16
2018-06-19T07:43:34.903Z,33.56
2018-06-19T07:48:38.066Z,31.25
2018-06-19T07:53:41.206Z,34.19
2018-06-19T07:58:44.331Z,31.59
2018-06-19T08:03:47.486Z,33.80
2018-06-19T08:08:50.649Z,31.90
2018-06-19T08:13:53.796Z,33.53
2018-06-19T08:18:56.971Z,34.27
2018-06-19T08:24:00.112Z,36.27
2018-06-19T08:29:03.449Z,35.56
2018-06-19T08:34:06.778Z,35.67
2018-06-19T08:39:09.920Z,35.96
2018-06-19T08:44:13.102Z,35.69
2018-06-19T08:49:16.266Z,34.25
2018-06-19T08:54:19.433Z,33.72
2018-06-19T08:59:22.563Z,34.36
2018-06-19T09:04:26.700Z,34.22
2018-06-19T09:09:29.926Z,33.25
2018-06-19T09:14:33.165Z,33.87
2018-06-19T09:19:37.261Z,30.93
2018-06-19T09:24:40.417Z,32.39
2018-06-19T09:29:43.623Z,31.92
2018-06-19T09:34:46.767Z,34.84
2018-06-19T09:39:49.996Z,35.45
2018-06-19T09:44:53.189Z,35.06
2018-06-19T09:49:56.407Z,32.30
2018-06-19T09:55:00.594Z,31.04
2018-06-19T10:00:05.132Z,31.97
2018-06-19T10:05:08.526Z,30.57
2018-06-19T10:10:12.064Z,29.47
2018-06-19T10:15:17.017Z,30.26
2018-06-19T10:20:21.994Z,28.95
2018-06-19T10:25:25.282Z,29.16
2018-06-19T10:30:28.601Z,28.15
2018-06-19T10:35:31.797Z,28.33
2018-06-19T10:40:34.947Z,28.60
2018-06-19T10:45:38.958Z,28.20
2018-06-19T10:50:43.881Z,27.66
2018-06-19T10:55:48.193Z,27.46
2018-06-19T11:00:53.134Z,27.36
2018-06-19T11:05:56.358Z,27.02
2018-06-19T11:11:01.404Z,27.47
2018-06-19T11:16:06.403Z,27.43
2018-06-19T11:21:10.150Z,28.08
2018-06-19T11:26:13.324Z,27.68
2018-06-19T11:31:16.719Z,27.20
2018-06-19T11:36:19.994Z,26.15
2018-06-19T11:41:23.204Z,26.14
2018-06-19T11:46:26.448Z,25.91
2018-06-19T11:51:30.807Z,26.29
2018-06-19T11:56:34.393Z,26.88
2018-06-19T12:01:37.630Z,27.15
2018-06-19T12:06:41.327Z,27.40
2018-06-19T12:11:44.422Z,28.22
2018-06-19T12:16:47.676Z,29.14
2018-06-19T12:21:50.935Z,29.30
2018-06-19T12:26:54.185Z,29.37
2018-06-19T12:31:57.840Z,29.61
2018-06-19T12:37:01.089Z,29.26
2018-06-19T12:42:04.312Z,29.21
2018-06-19T12:47:07.569Z,30.03
2018-06-19T12:52:21.878Z,30.57
2018-06-19T12:57:25.045Z,29.50
2018-06-19T13:02:28.151Z,28.36
2018-06-19T13:07:31.239Z,27.70
2018-06-19T13:13:47.421Z,28.20
2018-06-19T13:19:01.659Z,28.86
2018-06-19T13:24:04.906Z,28.04
2018-06-19T13:29:44.590Z,27.22
2018-06-19T13:34:47.753Z,27.04
2018-06-19T13:41:03.653Z,27.05
2018-06-19T13:46:06.827Z,27.28
2018-06-19T13:51:10.042Z,27.17
2018-06-19T13:57:24.574Z,27.12
2018-06-19T14:02:27.939Z,26.41
2018-06-19T14:07:31.123Z,26.35
2018-06-19T14:12:46.415Z,26.49
2018-06-19T14:17:49.550Z,26.37
2018-06-19T14:22:52.713Z,25.70
2018-06-19T14:27:55.856Z,25.05
2018-06-19T14:32:59.477Z,24.85
2018-06-19T14:38:03.201Z,24.62
2018-06-19T14:43:06.948Z,24.51
2018-06-19T14:48:10.130Z,24.65
2018-06-19T14:53:13.319Z,24.86
2018-06-19T14:58:16.525Z,24.92
2018-06-19T15:03:19.774Z,24.96
2018-06-19T15:08:23.053Z,25.00
2018-06-19T15:13:26.274Z,24.94
2018-06-19T15:18:29.608Z,24.84
2018-06-19T15:23:32.782Z,24.85
2018-06-19T15:28:36.089Z,24.70
2018-06-19T15:33:39.602Z,24.26
2018-06-19T15:38:42.959Z,24.15
2018-06-19T15:43:46.054Z,24.12
2018-06-19T15:48:49.202Z,23.94
2018-06-19T15:54:05.933Z,24.15
2018-06-19T15:59:11.252Z,24.60
2018-06-19T16:04:15.740Z,25.09
2018-06-19T16:09:20.949Z,25.25
2018-06-19T16:14:24.070Z,25.45
2018-06-19T16:19:27.232Z,25.30
2018-06-19T16:24:30.368Z,25.56
2018-06-19T16:29:34.837Z,25.60
2018-06-19T16:34:39.925Z,25.49
2018-06-19T16:39:44.362Z,25.20
2018-06-19T16:44:48.672Z,24.93
2018-06-19T16:49:53.331Z,25.29
2018-06-19T16:54:58.118Z,25.87
2018-06-19T17:00:01.702Z,25.34
2018-06-19T17:05:04.995Z,25.10
2018-06-19T17:10:08.389Z,24.49
2018-06-19T17:15:11.549Z,24.26
2018-06-19T17:20:14.683Z,24.24
2018-06-19T17:25:17.817Z,24.21
2018-06-19T17:30:21.550Z,24.19
2018-06-19T17:35:24.702Z,24.18
2018-06-19T17:40:27.898Z,24.05
2018-06-19T17:45:31.594Z,23.91
2018-06-19T17:50:35.309Z,23.92
2018-06-19T17:55:38.893Z,23.66
2018-06-19T18:00:42.515Z,23.63
2018-06-19T18:05:45.769Z,23.35
2018-06-19T18:10:49.029Z,23.25
2018-06-19T18:15:52.100Z,23.29
2018-06-19T18:20:55.968Z,23.08
2018-06-19T18:25:59.233Z,23.30
2018-06-19T18:31:02.504Z,23.47
2018-06-19T18:36:05.742Z,23.32
2018-06-19T18:41:09.165Z,23.15
2018-06-19T18:46:13.174Z,23.04
2018-06-19T18:51:16.913Z,22.78
2018-06-19T18:56:21.335Z,22.27
2018-06-19T19:01:24.886Z,21.88
2018-06-19T19:06:29.776Z,21.62
2018-06-19T19:11:34.542Z,21.37
2018-06-19T19:16:39.056Z,21.22
2018-06-19T19:21:43.994Z,21.10
2018-06-19T19:26:50.569Z,20.94
2018-06-19T19:31:55.632Z,20.84
2018-06-19T19:36:58.749Z,20.71
2018-06-19T19:42:02.047Z,20.59
2018-06-19T19:47:05.244Z,20.42
2018-06-19T19:52:10.578Z,20.36
2018-06-19T19:57:19.509Z,20.25
2018-06-19T20:02:26.216Z,19.99
2018-06-19T20:07:30.679Z,19.93
2018-06-19T20:12:33.883Z,19.76
2018-06-19T20:17:37.185Z,19.77
2018-06-19T20:22:41.057Z,19.61
2018-06-19T20:27:44.149Z,19.39
2018-06-19T20:32:47.619Z,19.33
2018-06-19T20:37:50.740Z,19.22
2018-06-19T20:42:54.258Z,19.08
2018-06-19T20:48:02.143Z,18.84
2018-06-19T20:53:08.056Z,18.67
2018-06-19T20:58:11.569Z,18.29
2018-06-19T21:03:14.718Z,18.08
2018-06-19T21:08:17.823Z,17.83
2018-06-19T21:13:21.187Z,17.66
2018-06-19T21:18:24.326Z,17.63
2018-06-19T21:23:27.433Z,17.47
2018-06-19T21:28:30.548Z,17.29
2018-06-19T21:33:34.029Z,17.25
2018-06-19T21:38:39.086Z,17.37
2018-06-19T21:43:42.268Z,17.36
2018-06-19T21:48:45.419Z,17.18
2018-06-19T21:53:48.557Z,16.94
2018-06-19T21:58:52.193Z,16.74
2018-06-19T22:03:55.297Z,16.68
2018-06-19T22:08:58.469Z,16.55
2018-06-19T22:14:01.708Z,16.41
2018-06-19T22:19:04.918Z,16.30
2018-06-19T22:24:08.117Z,16.19
2018-06-19T22:29:13.307Z,16.09
2018-06-19T22:34:16.405Z,15.94
2018-06-19T22:39:19.538Z,15.87
2018-06-19T22:44:22.626Z,15.83
2018-06-19T22:49:25.721Z,15.71
2018-06-19T22:54:28.857Z,15.61
2018-06-19T22:59:32.068Z,15.53
2018-06-19T23:04:35.180Z,15.41
2018-06-19T23:09:38.334Z,15.41
2018-06-19T23:14:41.456Z,15.34
2018-06-19T23:19:44.626Z,15.27
2018-06-19T23:24:47.754Z,15.20
2018-06-19T23:29:50.837Z,15.19
2018-06-19T23:34:54.017Z,15.12
2018-06-19T23:39:58.236Z,15.05
2018-06-19T23:45:01.425Z,15.00
2018-06-19T23:50:04.761Z,15.16
2018-06-19T23:55:07.950Z,15.40
